Terminal Aerodrome Forecast
Issued by NWS Charleston, WV

Current Version | Previous Version | Graphics & Text | Print | Product List | Glossary On
Versions: 1 2 3 4 5 6 7 8 9 10 11 12 13 14 15 16 17 18 19 20 21 22 23 24 25 26 27
000
FTUS41 KRLX 270500 AAC
TAFEKN
TAF AMD
KEKN 270502Z 2705/2724 29006KT P6SM BKN035
     FM270530 30005KT 4SM -SN BKN030
      TEMPO 2706/2709 2SM -SN BKN015
     FM271000 31005KT 3SM -SN BKN020
     FM271100 31005KT 6SM -SN BKN025
     FM272200 30006KT P6SM SCT030=

USA.gov is the U.S. government's official web portal to all federal, state and local government web resources and services.